sensor_id;sensor_type;location;lat;lon;timestamp;P1;durP1;ratioP1;P2;durP2;ratioP2
27113;SDS011;14648;49.730;8.614;2023-04-28T00:02:15;8.53;;;3.07;;
27113;SDS011;14648;49.730;8.614;2023-04-28T00:04:42;5.23;;;2.40;;
27113;SDS011;14648;49.730;8.614;2023-04-28T00:07:08;4.60;;;2.33;;
27113;SDS011;14648;49.730;8.614;2023-04-28T00:09:33;3.33;;;2.70;;
27113;SDS011;14648;49.730;8.614;2023-04-28T00:11:59;4.67;;;2.70;;
27113;SDS011;14648;49.730;8.614;2023-04-28T00:14:25;2.40;;;2.30;;
27113;SDS011;14648;49.730;8.614;2023-04-28T00:16:51;3.80;;;2.30;;
27113;SDS011;14648;49.730;8.614;2023-04-28T00:19:17;5.50;;;2.70;;
27113;SDS011;14648;49.730;8.614;2023-04-28T00:21:42;2.30;;;2.17;;
27113;SDS011;14648;49.730;8.614;2023-04-28T00:24:08;2.27;;;2.07;;
27113;SDS011;14648;49.730;8.614;2023-04-28T00:26:34;2.50;;;2.30;;
27113;SDS011;14648;49.730;8.614;2023-04-28T00:28:59;4.00;;;1.80;;
27113;SDS011;14648;49.730;8.614;2023-04-28T00:31:25;2.83;;;2.60;;
27113;SDS011;14648;49.730;8.614;2023-04-28T00:33:50;4.70;;;2.50;;
27113;SDS011;14648;49.730;8.614;2023-04-28T00:36:16;2.40;;;2.20;;
27113;SDS011;14648;49.730;8.614;2023-04-28T00:38:42;2.60;;;2.30;;
27113;SDS011;14648;49.730;8.614;2023-04-28T00:41:10;11.77;;;4.40;;
27113;SDS011;14648;49.730;8.614;2023-04-28T00:43:43;3.67;;;2.53;;
27113;SDS011;14648;49.730;8.614;2023-04-28T00:46:20;6.00;;;2.30;;
27113;SDS011;14648;49.730;8.614;2023-04-28T00:48:52;2.60;;;2.40;;
27113;SDS011;14648;49.730;8.614;2023-04-28T00:51:17;3.80;;;2.80;;
27113;SDS011;14648;49.730;8.614;2023-04-28T00:53:43;4.20;;;3.03;;
27113;SDS011;14648;49.730;8.614;2023-04-28T00:56:09;8.00;;;2.80;;
27113;SDS011;14648;49.730;8.614;2023-04-28T00:58:36;3.70;;;2.37;;
27113;SDS011;14648;49.730;8.614;2023-04-28T01:01:05;4.50;;;2.90;;
27113;SDS011;14648;49.730;8.614;2023-04-28T01:03:34;4.20;;;3.37;;
27113;SDS011;14648;49.730;8.614;2023-04-28T01:06:04;2.60;;;2.40;;
27113;SDS011;14648;49.730;8.614;2023-04-28T01:08:34;5.37;;;2.80;;
27113;SDS011;14648;49.730;8.614;2023-04-28T01:11:01;3.80;;;2.50;;
27113;SDS011;14648;49.730;8.614;2023-04-28T01:13:27;3.43;;;2.00;;
27113;SDS011;14648;49.730;8.614;2023-04-28T01:15:54;5.53;;;2.40;;
27113;SDS011;14648;49.730;8.614;2023-04-28T01:18:20;3.10;;;2.67;;
27113;SDS011;14648;49.730;8.614;2023-04-28T01:20:47;3.33;;;2.20;;
27113;SDS011;14648;49.730;8.614;2023-04-28T01:23:16;3.03;;;1.67;;
27113;SDS011;14648;49.730;8.614;2023-04-28T01:25:42;2.23;;;2.03;;
27113;SDS011;14648;49.730;8.614;2023-04-28T01:28:08;3.13;;;2.20;;
27113;SDS011;14648;49.730;8.614;2023-04-28T01:30:35;2.70;;;2.37;;
27113;SDS011;14648;49.730;8.614;2023-04-28T01:33:01;2.60;;;2.40;;
27113;SDS011;14648;49.730;8.614;2023-04-28T01:35:27;4.23;;;2.67;;
27113;SDS011;14648;49.730;8.614;2023-04-28T01:37:53;2.40;;;2.20;;
27113;SDS011;14648;49.730;8.614;2023-04-28T01:40:19;4.67;;;2.80;;
27113;SDS011;14648;49.730;8.614;2023-04-28T01:42:45;2.70;;;2.50;;
27113;SDS011;14648;49.730;8.614;2023-04-28T01:45:10;5.03;;;2.60;;
27113;SDS011;14648;49.730;8.614;2023-04-28T01:47:37;2.70;;;2.10;;
27113;SDS011;14648;49.730;8.614;2023-04-28T01:50:03;5.60;;;2.47;;
27113;SDS011;14648;49.730;8.614;2023-04-28T01:52:29;2.67;;;2.43;;
27113;SDS011;14648;49.730;8.614;2023-04-28T01:54:55;2.67;;;2.47;;
27113;SDS011;14648;49.730;8.614;2023-04-28T01:57:21;2.43;;;2.10;;
27113;SDS011;14648;49.730;8.614;2023-04-28T01:59:47;5.53;;;2.90;;
27113;SDS011;14648;49.730;8.614;2023-04-28T02:02:12;3.60;;;2.70;;
27113;SDS011;14648;49.730;8.614;2023-04-28T02:04:38;4.80;;;2.67;;
27113;SDS011;14648;49.730;8.614;2023-04-28T02:07:04;4.27;;;2.60;;
27113;SDS011;14648;49.730;8.614;2023-04-28T02:09:31;2.97;;;2.77;;
27113;SDS011;14648;49.730;8.614;2023-04-28T02:11:58;2.60;;;2.40;;
27113;SDS011;14648;49.730;8.614;2023-04-28T02:14:24;7.73;;;2.40;;
27113;SDS011;14648;49.730;8.614;2023-04-28T02:16:51;4.13;;;2.27;;
27113;SDS011;14648;49.730;8.614;2023-04-28T02:19:16;3.10;;;2.80;;
27113;SDS011;14648;49.730;8.614;2023-04-28T02:21:42;3.13;;;2.93;;
27113;SDS011;14648;49.730;8.614;2023-04-28T02:24:08;3.40;;;2.73;;
27113;SDS011;14648;49.730;8.614;2023-04-28T02:26:33;4.23;;;2.40;;
27113;SDS011;14648;49.730;8.614;2023-04-28T02:28:59;2.90;;;2.57;;
27113;SDS011;14648;49.730;8.614;2023-04-28T02:31:25;6.20;;;2.90;;
27113;SDS011;14648;49.730;8.614;2023-04-28T02:33:51;3.03;;;2.73;;
27113;SDS011;14648;49.730;8.614;2023-04-28T02:36:17;6.03;;;3.17;;
27113;SDS011;14648;49.730;8.614;2023-04-28T02:38:43;2.83;;;2.70;;
27113;SDS011;14648;49.730;8.614;2023-04-28T02:41:09;5.63;;;3.20;;
27113;SDS011;14648;49.730;8.614;2023-04-28T02:43:35;4.87;;;4.30;;
27113;SDS011;14648;49.730;8.614;2023-04-28T02:46:02;4.40;;;3.80;;
27113;SDS011;14648;49.730;8.614;2023-04-28T02:48:28;5.60;;;4.00;;
27113;SDS011;14648;49.730;8.614;2023-04-28T02:50:54;12.60;;;4.37;;
27113;SDS011;14648;49.730;8.614;2023-04-28T02:53:20;6.50;;;4.37;;
27113;SDS011;14648;49.730;8.614;2023-04-28T02:55:47;4.50;;;3.97;;
27113;SDS011;14648;49.730;8.614;2023-04-28T02:58:13;8.43;;;4.87;;
27113;SDS011;14648;49.730;8.614;2023-04-28T03:00:39;4.37;;;4.00;;
27113;SDS011;14648;49.730;8.614;2023-04-28T03:03:05;5.60;;;4.20;;
27113;SDS011;14648;49.730;8.614;2023-04-28T03:05:31;5.70;;;4.40;;
27113;SDS011;14648;49.730;8.614;2023-04-28T03:07:56;9.93;;;4.07;;
27113;SDS011;14648;49.730;8.614;2023-04-28T03:10:23;4.90;;;4.47;;
27113;SDS011;14648;49.730;8.614;2023-04-28T03:12:49;4.07;;;3.77;;
27113;SDS011;14648;49.730;8.614;2023-04-28T03:15:14;7.93;;;4.20;;
27113;SDS011;14648;49.730;8.614;2023-04-28T03:17:40;4.00;;;3.40;;
27113;SDS011;14648;49.730;8.614;2023-04-28T03:20:07;3.10;;;2.90;;
27113;SDS011;14648;49.730;8.614;2023-04-28T03:22:34;5.03;;;3.30;;
27113;SDS011;14648;49.730;8.614;2023-04-28T03:25:00;3.80;;;3.50;;
27113;SDS011;14648;49.730;8.614;2023-04-28T03:27:27;4.87;;;3.97;;
27113;SDS011;14648;49.730;8.614;2023-04-28T03:29:53;4.10;;;3.80;;
27113;SDS011;14648;49.730;8.614;2023-04-28T03:32:18;9.50;;;4.00;;
27113;SDS011;14648;49.730;8.614;2023-04-28T03:34:44;5.63;;;4.63;;
27113;SDS011;14648;49.730;8.614;2023-04-28T03:37:10;6.00;;;4.23;;
27113;SDS011;14648;49.730;8.614;2023-04-28T03:39:36;6.03;;;4.50;;
27113;SDS011;14648;49.730;8.614;2023-04-28T03:42:01;5.10;;;3.93;;
27113;SDS011;14648;49.730;8.614;2023-04-28T03:44:27;6.40;;;3.80;;
27113;SDS011;14648;49.730;8.614;2023-04-28T03:46:53;8.60;;;3.80;;
27113;SDS011;14648;49.730;8.614;2023-04-28T03:49:19;4.83;;;3.03;;
27113;SDS011;14648;49.730;8.614;2023-04-28T03:51:44;3.80;;;3.50;;
27113;SDS011;14648;49.730;8.614;2023-04-28T03:54:10;4.33;;;3.93;;
27113;SDS011;14648;49.730;8.614;2023-04-28T03:56:36;5.03;;;3.60;;
27113;SDS011;14648;49.730;8.614;2023-04-28T03:59:02;4.73;;;4.33;;
27113;SDS011;14648;49.730;8.614;2023-04-28T04:01:27;4.07;;;3.40;;
27113;SDS011;14648;49.730;8.614;2023-04-28T04:03:53;4.33;;;3.93;;
27113;SDS011;14648;49.730;8.614;2023-04-28T04:06:18;5.93;;;4.20;;
27113;SDS011;14648;49.730;8.614;2023-04-28T04:08:46;6.07;;;4.30;;
27113;SDS011;14648;49.730;8.614;2023-04-28T04:11:12;5.93;;;4.00;;
27113;SDS011;14648;49.730;8.614;2023-04-28T04:13:37;6.10;;;4.40;;
27113;SDS011;14648;49.730;8.614;2023-04-28T04:16:03;4.97;;;4.10;;
27113;SDS011;14648;49.730;8.614;2023-04-28T04:18:29;4.50;;;4.10;;
27113;SDS011;14648;49.730;8.614;2023-04-28T04:20:55;5.37;;;3.97;;
27113;SDS011;14648;49.730;8.614;2023-04-28T04:23:21;5.17;;;4.03;;
27113;SDS011;14648;49.730;8.614;2023-04-28T04:25:47;7.80;;;3.93;;
27113;SDS011;14648;49.730;8.614;2023-04-28T04:28:13;4.50;;;4.10;;
27113;SDS011;14648;49.730;8.614;2023-04-28T04:30:39;4.83;;;4.17;;
27113;SDS011;14648;49.730;8.614;2023-04-28T04:33:05;5.43;;;3.90;;
27113;SDS011;14648;49.730;8.614;2023-04-28T04:35:31;4.97;;;4.10;;
27113;SDS011;14648;49.730;8.614;2023-04-28T04:37:57;6.40;;;4.27;;
27113;SDS011;14648;49.730;8.614;2023-04-28T04:40:22;4.90;;;4.40;;
27113;SDS011;14648;49.730;8.614;2023-04-28T04:42:48;8.83;;;6.60;;
27113;SDS011;14648;49.730;8.614;2023-04-28T04:45:14;7.10;;;4.53;;
27113;SDS011;14648;49.730;8.614;2023-04-28T04:47:40;7.10;;;6.40;;
27113;SDS011;14648;49.730;8.614;2023-04-28T04:50:06;5.70;;;4.30;;
27113;SDS011;14648;49.730;8.614;2023-04-28T04:52:32;5.20;;;4.70;;
27113;SDS011;14648;49.730;8.614;2023-04-28T04:54:58;6.87;;;4.53;;
27113;SDS011;14648;49.730;8.614;2023-04-28T04:57:24;5.20;;;4.70;;
27113;SDS011;14648;49.730;8.614;2023-04-28T04:59:49;6.83;;;5.10;;
27113;SDS011;14648;49.730;8.614;2023-04-28T05:02:15;5.73;;;5.00;;
27113;SDS011;14648;49.730;8.614;2023-04-28T05:04:41;7.90;;;5.00;;
27113;SDS011;14648;49.730;8.614;2023-04-28T05:07:07;6.87;;;4.27;;
27113;SDS011;14648;49.730;8.614;2023-04-28T05:09:33;5.80;;;4.77;;
27113;SDS011;14648;49.730;8.614;2023-04-28T05:11:58;7.53;;;5.17;;
27113;SDS011;14648;49.730;8.614;2023-04-28T05:14:24;11.20;;;5.00;;
27113;SDS011;14648;49.730;8.614;2023-04-28T05:16:50;6.97;;;5.23;;
27113;SDS011;14648;49.730;8.614;2023-04-28T05:19:16;10.30;;;6.63;;
27113;SDS011;14648;49.730;8.614;2023-04-28T05:21:42;10.17;;;6.90;;
27113;SDS011;14648;49.730;8.614;2023-04-28T05:24:08;13.43;;;6.50;;
27113;SDS011;14648;49.730;8.614;2023-04-28T05:26:34;6.27;;;5.47;;
27113;SDS011;14648;49.730;8.614;2023-04-28T05:29:00;14.07;;;6.10;;
27113;SDS011;14648;49.730;8.614;2023-04-28T05:31:26;11.37;;;7.10;;
27113;SDS011;14648;49.730;8.614;2023-04-28T05:33:51;11.17;;;7.20;;
27113;SDS011;14648;49.730;8.614;2023-04-28T05:36:17;6.53;;;5.03;;
27113;SDS011;14648;49.730;8.614;2023-04-28T05:38:43;11.70;;;5.40;;
27113;SDS011;14648;49.730;8.614;2023-04-28T05:41:09;8.93;;;4.73;;
27113;SDS011;14648;49.730;8.614;2023-04-28T05:43:34;7.83;;;4.97;;
27113;SDS011;14648;49.730;8.614;2023-04-28T05:46:01;7.50;;;5.83;;
27113;SDS011;14648;49.730;8.614;2023-04-28T05:48:27;5.30;;;4.80;;
27113;SDS011;14648;49.730;8.614;2023-04-28T05:50:52;8.47;;;5.53;;
27113;SDS011;14648;49.730;8.614;2023-04-28T05:53:18;8.67;;;5.50;;
27113;SDS011;14648;49.730;8.614;2023-04-28T05:55:44;5.93;;;5.13;;
27113;SDS011;14648;49.730;8.614;2023-04-28T05:58:10;11.47;;;5.57;;
27113;SDS011;14648;49.730;8.614;2023-04-28T06:00:35;7.87;;;5.93;;
27113;SDS011;14648;49.730;8.614;2023-04-28T06:03:01;7.00;;;5.30;;
27113;SDS011;14648;49.730;8.614;2023-04-28T06:05:27;7.30;;;6.13;;
27113;SDS011;14648;49.730;8.614;2023-04-28T06:07:53;13.03;;;6.90;;
27113;SDS011;14648;49.730;8.614;2023-04-28T06:10:20;9.37;;;6.10;;
27113;SDS011;14648;49.730;8.614;2023-04-28T06:12:47;7.50;;;5.70;;
27113;SDS011;14648;49.730;8.614;2023-04-28T06:15:12;7.33;;;5.07;;
27113;SDS011;14648;49.730;8.614;2023-04-28T06:17:41;8.10;;;5.93;;
27113;SDS011;14648;49.730;8.614;2023-04-28T06:20:08;10.17;;;4.87;;
27113;SDS011;14648;49.730;8.614;2023-04-28T06:22:37;7.97;;;5.20;;
27113;SDS011;14648;49.730;8.614;2023-04-28T06:25:02;9.80;;;6.17;;
27113;SDS011;14648;49.730;8.614;2023-04-28T06:27:29;12.20;;;6.17;;
27113;SDS011;14648;49.730;8.614;2023-04-28T06:29:56;9.87;;;6.10;;
27113;SDS011;14648;49.730;8.614;2023-04-28T06:32:23;7.10;;;6.03;;
27113;SDS011;14648;49.730;8.614;2023-04-28T06:34:49;10.13;;;6.53;;
27113;SDS011;14648;49.730;8.614;2023-04-28T06:37:15;9.63;;;6.60;;
27113;SDS011;14648;49.730;8.614;2023-04-28T06:39:41;11.23;;;6.40;;
27113;SDS011;14648;49.730;8.614;2023-04-28T06:42:06;16.87;;;7.30;;
27113;SDS011;14648;49.730;8.614;2023-04-28T06:44:33;8.23;;;5.50;;
27113;SDS011;14648;49.730;8.614;2023-04-28T06:46:59;8.17;;;6.40;;
27113;SDS011;14648;49.730;8.614;2023-04-28T06:49:25;7.87;;;6.20;;
27113;SDS011;14648;49.730;8.614;2023-04-28T06:51:51;6.33;;;5.73;;
27113;SDS011;14648;49.730;8.614;2023-04-28T06:54:17;8.70;;;6.50;;
27113;SDS011;14648;49.730;8.614;2023-04-28T06:56:43;6.87;;;5.83;;
27113;SDS011;14648;49.730;8.614;2023-04-28T06:59:08;7.97;;;6.67;;
27113;SDS011;14648;49.730;8.614;2023-04-28T07:01:34;10.37;;;7.97;;
27113;SDS011;14648;49.730;8.614;2023-04-28T07:04:00;8.10;;;7.10;;
27113;SDS011;14648;49.730;8.614;2023-04-28T07:06:26;10.73;;;8.03;;
27113;SDS011;14648;49.730;8.614;2023-04-28T07:08:52;14.50;;;9.93;;
27113;SDS011;14648;49.730;8.614;2023-04-28T07:11:19;13.23;;;9.00;;
27113;SDS011;14648;49.730;8.614;2023-04-28T07:13:47;9.60;;;6.97;;
27113;SDS011;14648;49.730;8.614;2023-04-28T07:16:16;10.60;;;7.20;;
27113;SDS011;14648;49.730;8.614;2023-04-28T07:18:43;9.50;;;8.07;;
27113;SDS011;14648;49.730;8.614;2023-04-28T07:21:09;14.17;;;6.10;;
27113;SDS011;14648;49.730;8.614;2023-04-28T07:23:35;6.10;;;5.37;;
27113;SDS011;14648;49.730;8.614;2023-04-28T07:26:02;6.70;;;4.93;;
27113;SDS011;14648;49.730;8.614;2023-04-28T07:28:28;5.87;;;5.33;;
27113;SDS011;14648;49.730;8.614;2023-04-28T07:30:54;8.40;;;5.90;;
27113;SDS011;14648;49.730;8.614;2023-04-28T07:33:20;5.37;;;4.87;;
27113;SDS011;14648;49.730;8.614;2023-04-28T07:35:46;8.47;;;5.80;;
27113;SDS011;14648;49.730;8.614;2023-04-28T07:38:12;6.77;;;6.07;;
27113;SDS011;14648;49.730;8.614;2023-04-28T07:40:37;8.30;;;6.57;;
27113;SDS011;14648;49.730;8.614;2023-04-28T07:43:03;6.20;;;5.30;;
27113;SDS011;14648;49.730;8.614;2023-04-28T07:45:29;8.33;;;5.97;;
27113;SDS011;14648;49.730;8.614;2023-04-28T07:47:54;6.33;;;5.73;;
27113;SDS011;14648;49.730;8.614;2023-04-28T07:50:20;9.73;;;6.03;;
27113;SDS011;14648;49.730;8.614;2023-04-28T07:52:46;6.30;;;4.83;;
27113;SDS011;14648;49.730;8.614;2023-04-28T07:55:12;10.80;;;6.00;;
27113;SDS011;14648;49.730;8.614;2023-04-28T07:57:38;8.57;;;6.40;;
27113;SDS011;14648;49.730;8.614;2023-04-28T08:00:05;9.83;;;7.13;;
27113;SDS011;14648;49.730;8.614;2023-04-28T08:02:31;7.57;;;6.73;;
27113;SDS011;14648;49.730;8.614;2023-04-28T08:04:58;9.77;;;7.20;;
27113;SDS011;14648;49.730;8.614;2023-04-28T08:07:24;13.47;;;8.47;;
27113;SDS011;14648;49.730;8.614;2023-04-28T08:09:50;10.70;;;6.97;;
27113;SDS011;14648;49.730;8.614;2023-04-28T08:12:16;11.63;;;7.77;;
27113;SDS011;14648;49.730;8.614;2023-04-28T08:14:42;10.63;;;7.73;;
27113;SDS011;14648;49.730;8.614;2023-04-28T08:17:07;9.00;;;7.37;;
27113;SDS011;14648;49.730;8.614;2023-04-28T08:19:33;11.10;;;8.00;;
27113;SDS011;14648;49.730;8.614;2023-04-28T08:21:59;10.30;;;7.73;;
27113;SDS011;14648;49.730;8.614;2023-04-28T08:24:29;12.80;;;7.40;;
27113;SDS011;14648;49.730;8.614;2023-04-28T08:26:59;11.87;;;8.17;;
27113;SDS011;14648;49.730;8.614;2023-04-28T08:29:27;9.60;;;6.33;;
27113;SDS011;14648;49.730;8.614;2023-04-28T08:31:57;11.10;;;6.70;;
27113;SDS011;14648;49.730;8.614;2023-04-28T08:34:23;10.77;;;8.10;;
27113;SDS011;14648;49.730;8.614;2023-04-28T08:36:50;8.47;;;7.37;;
27113;SDS011;14648;49.730;8.614;2023-04-28T08:39:17;10.97;;;7.77;;
27113;SDS011;14648;49.730;8.614;2023-04-28T08:41:44;11.33;;;7.63;;
27113;SDS011;14648;49.730;8.614;2023-04-28T08:44:10;10.20;;;7.90;;
27113;SDS011;14648;49.730;8.614;2023-04-28T08:46:43;9.93;;;8.27;;
27113;SDS011;14648;49.730;8.614;2023-04-28T08:49:14;9.63;;;7.83;;
27113;SDS011;14648;49.730;8.614;2023-04-28T08:51:55;14.20;;;9.27;;
27113;SDS011;14648;49.730;8.614;2023-04-28T08:54:23;12.50;;;9.07;;
27113;SDS011;14648;49.730;8.614;2023-04-28T08:56:55;10.37;;;8.60;;
27113;SDS011;14648;49.730;8.614;2023-04-28T08:59:22;10.83;;;8.83;;
27113;SDS011;14648;49.730;8.614;2023-04-28T09:01:48;12.23;;;8.97;;
27113;SDS011;14648;49.730;8.614;2023-04-28T09:04:18;11.33;;;9.07;;
27113;SDS011;14648;49.730;8.614;2023-04-28T09:06:44;9.00;;;8.10;;
27113;SDS011;14648;49.730;8.614;2023-04-28T09:09:29;13.80;;;8.43;;
27113;SDS011;14648;49.730;8.614;2023-04-28T09:11:59;10.07;;;9.13;;
27113;SDS011;14648;49.730;8.614;2023-04-28T09:14:27;10.53;;;8.83;;
27113;SDS011;14648;49.730;8.614;2023-04-28T09:16:55;12.80;;;9.00;;
27113;SDS011;14648;49.730;8.614;2023-04-28T09:19:21;11.30;;;9.10;;
27113;SDS011;14648;49.730;8.614;2023-04-28T09:21:54;9.60;;;8.60;;
27113;SDS011;14648;49.730;8.614;2023-04-28T09:24:39;9.70;;;8.07;;
27113;SDS011;14648;49.730;8.614;2023-04-28T09:27:07;14.03;;;9.57;;
27113;SDS011;14648;49.730;8.614;2023-04-28T09:29:50;10.00;;;8.70;;
27113;SDS011;14648;49.730;8.614;2023-04-28T09:32:21;9.23;;;8.23;;
27113;SDS011;14648;49.730;8.614;2023-04-28T09:34:52;10.80;;;8.20;;
27113;SDS011;14648;49.730;8.614;2023-04-28T09:37:24;14.40;;;9.20;;
27113;SDS011;14648;49.730;8.614;2023-04-28T09:39:52;10.43;;;9.17;;
27113;SDS011;14648;49.730;8.614;2023-04-28T09:42:35;11.60;;;9.40;;
27113;SDS011;14648;49.730;8.614;2023-04-28T09:45:07;12.53;;;8.73;;
27113;SDS011;14648;49.730;8.614;2023-04-28T09:47:45;13.80;;;9.60;;
27113;SDS011;14648;49.730;8.614;2023-04-28T09:50:14;8.90;;;8.00;;
27113;SDS011;14648;49.730;8.614;2023-04-28T09:52:41;15.80;;;9.90;;
27113;SDS011;14648;49.730;8.614;2023-04-28T09:55:21;15.97;;;10.60;;
27113;SDS011;14648;49.730;8.614;2023-04-28T09:57:48;10.33;;;9.23;;
27113;SDS011;14648;49.730;8.614;2023-04-28T10:00:15;11.23;;;10.03;;
27113;SDS011;14648;49.730;8.614;2023-04-28T10:02:42;8.70;;;7.90;;
27113;SDS011;14648;49.730;8.614;2023-04-28T10:05:09;10.63;;;8.90;;
27113;SDS011;14648;49.730;8.614;2023-04-28T10:07:35;9.50;;;8.50;;
27113;SDS011;14648;49.730;8.614;2023-04-28T10:10:01;11.50;;;8.40;;
27113;SDS011;14648;49.730;8.614;2023-04-28T10:12:28;9.40;;;7.63;;
27113;SDS011;14648;49.730;8.614;2023-04-28T10:14:53;12.57;;;10.20;;
27113;SDS011;14648;49.730;8.614;2023-04-28T10:17:21;12.10;;;10.20;;
27113;SDS011;14648;49.730;8.614;2023-04-28T10:19:49;14.63;;;10.43;;
27113;SDS011;14648;49.730;8.614;2023-04-28T10:27:41;12.23;;;9.20;;
27113;SDS011;14648;49.730;8.614;2023-04-28T10:30:12;17.83;;;9.53;;
27113;SDS011;14648;49.730;8.614;2023-04-28T10:32:39;12.97;;;9.20;;
27113;SDS011;14648;49.730;8.614;2023-04-28T10:38:06;14.30;;;9.80;;
27113;SDS011;14648;49.730;8.614;2023-04-28T10:43:34;11.17;;;9.50;;
27113;SDS011;14648;49.730;8.614;2023-04-28T10:46:05;10.57;;;8.20;;
27113;SDS011;14648;49.730;8.614;2023-04-28T10:56:19;9.07;;;7.70;;
27113;SDS011;14648;49.730;8.614;2023-04-28T10:58:48;8.53;;;7.60;;
27113;SDS011;14648;49.730;8.614;2023-04-28T11:03:56;8.73;;;7.83;;
27113;SDS011;14648;49.730;8.614;2023-04-28T11:06:31;9.60;;;6.73;;
27113;SDS011;14648;49.730;8.614;2023-04-28T11:21:58;8.63;;;7.77;;
27113;SDS011;14648;49.730;8.614;2023-04-28T11:24:33;10.33;;;7.80;;
27113;SDS011;14648;49.730;8.614;2023-04-28T11:26:59;9.77;;;8.77;;
27113;SDS011;14648;49.730;8.614;2023-04-28T11:29:29;10.20;;;8.20;;
27113;SDS011;14648;49.730;8.614;2023-04-28T11:32:04;10.60;;;8.67;;
27113;SDS011;14648;49.730;8.614;2023-04-28T11:34:31;11.17;;;7.67;;
27113;SDS011;14648;49.730;8.614;2023-04-28T11:36:58;10.20;;;8.17;;
27113;SDS011;14648;49.730;8.614;2023-04-28T11:39:24;8.73;;;7.90;;
27113;SDS011;14648;49.730;8.614;2023-04-28T11:41:53;9.13;;;8.17;;
27113;SDS011;14648;49.730;8.614;2023-04-28T11:44:20;8.47;;;7.67;;
27113;SDS011;14648;49.730;8.614;2023-04-28T11:46:55;9.57;;;7.70;;
27113;SDS011;14648;49.730;8.614;2023-04-28T11:49:26;10.13;;;8.50;;
27113;SDS011;14648;49.730;8.614;2023-04-28T11:52:03;8.67;;;7.80;;
27113;SDS011;14648;49.730;8.614;2023-04-28T11:54:31;10.27;;;8.13;;
27113;SDS011;14648;49.730;8.614;2023-04-28T11:56:57;11.93;;;8.47;;
27113;SDS011;14648;49.730;8.614;2023-04-28T11:59:29;10.03;;;8.87;;
27113;SDS011;14648;49.730;8.614;2023-04-28T12:02:01;9.93;;;8.13;;
27113;SDS011;14648;49.730;8.614;2023-04-28T12:04:35;12.40;;;8.90;;
27113;SDS011;14648;49.730;8.614;2023-04-28T12:07:06;9.40;;;7.87;;
27113;SDS011;14648;49.730;8.614;2023-04-28T12:09:43;11.13;;;7.60;;
27113;SDS011;14648;49.730;8.614;2023-04-28T12:12:12;13.33;;;7.80;;
27113;SDS011;14648;49.730;8.614;2023-04-28T12:17:38;9.33;;;5.80;;
27113;SDS011;14648;49.730;8.614;2023-04-28T12:20:06;8.30;;;6.43;;
27113;SDS011;14648;49.730;8.614;2023-04-28T12:22:46;7.60;;;6.90;;
27113;SDS011;14648;49.730;8.614;2023-04-28T12:25:15;7.77;;;7.07;;
27113;SDS011;14648;49.730;8.614;2023-04-28T12:27:59;7.83;;;6.17;;
27113;SDS011;14648;49.730;8.614;2023-04-28T12:30:29;8.40;;;6.60;;
27113;SDS011;14648;49.730;8.614;2023-04-28T12:32:59;9.13;;;6.93;;
27113;SDS011;14648;49.730;8.614;2023-04-28T12:35:26;7.97;;;6.60;;
27113;SDS011;14648;49.730;8.614;2023-04-28T12:37:53;7.90;;;6.13;;
27113;SDS011;14648;49.730;8.614;2023-04-28T12:40:21;7.63;;;6.80;;
27113;SDS011;14648;49.730;8.614;2023-04-28T12:42:48;7.70;;;6.90;;
27113;SDS011;14648;49.730;8.614;2023-04-28T12:45:14;8.83;;;7.70;;
27113;SDS011;14648;49.730;8.614;2023-04-28T12:47:40;8.07;;;6.53;;
27113;SDS011;14648;49.730;8.614;2023-04-28T12:50:06;6.50;;;5.93;;
27113;SDS011;14648;49.730;8.614;2023-04-28T12:52:33;7.60;;;6.97;;
27113;SDS011;14648;49.730;8.614;2023-04-28T12:54:59;6.40;;;5.90;;
27113;SDS011;14648;49.730;8.614;2023-04-28T12:57:29;6.73;;;6.13;;
27113;SDS011;14648;49.730;8.614;2023-04-28T12:59:55;8.57;;;6.47;;
27113;SDS011;14648;49.730;8.614;2023-04-28T13:02:21;7.27;;;5.50;;
27113;SDS011;14648;49.730;8.614;2023-04-28T13:04:47;5.73;;;5.23;;
27113;SDS011;14648;49.730;8.614;2023-04-28T13:07:14;10.70;;;6.17;;
27113;SDS011;14648;49.730;8.614;2023-04-28T13:09:41;5.30;;;4.80;;
27113;SDS011;14648;49.730;8.614;2023-04-28T13:12:07;4.30;;;3.90;;
27113;SDS011;14648;49.730;8.614;2023-04-28T13:14:34;5.40;;;4.13;;
27113;SDS011;14648;49.730;8.614;2023-04-28T13:16:59;4.90;;;4.33;;
27113;SDS011;14648;49.730;8.614;2023-04-28T13:19:27;4.60;;;4.20;;
27113;SDS011;14648;49.730;8.614;2023-04-28T13:21:54;4.00;;;3.47;;
27113;SDS011;14648;49.730;8.614;2023-04-28T13:24:20;4.00;;;3.70;;
27113;SDS011;14648;49.730;8.614;2023-04-28T13:26:46;4.80;;;4.27;;
27113;SDS011;14648;49.730;8.614;2023-04-28T13:29:11;5.10;;;4.57;;
27113;SDS011;14648;49.730;8.614;2023-04-28T13:31:38;4.37;;;4.00;;
27113;SDS011;14648;49.730;8.614;2023-04-28T13:34:05;5.73;;;5.20;;
27113;SDS011;14648;49.730;8.614;2023-04-28T13:36:32;7.10;;;5.20;;
27113;SDS011;14648;49.730;8.614;2023-04-28T13:38:58;7.10;;;5.60;;
27113;SDS011;14648;49.730;8.614;2023-04-28T13:41:23;5.50;;;4.97;;
27113;SDS011;14648;49.730;8.614;2023-04-28T13:43:50;5.87;;;5.27;;
27113;SDS011;14648;49.730;8.614;2023-04-28T13:46:16;5.03;;;4.50;;
27113;SDS011;14648;49.730;8.614;2023-04-28T13:48:42;7.87;;;4.90;;
27113;SDS011;14648;49.730;8.614;2023-04-28T13:51:07;5.20;;;4.70;;
27113;SDS011;14648;49.730;8.614;2023-04-28T13:53:34;4.10;;;3.80;;
27113;SDS011;14648;49.730;8.614;2023-04-28T13:56:02;5.63;;;4.13;;
27113;SDS011;14648;49.730;8.614;2023-04-28T13:58:29;3.13;;;2.90;;
27113;SDS011;14648;49.730;8.614;2023-04-28T14:00:55;4.13;;;3.20;;
27113;SDS011;14648;49.730;8.614;2023-04-28T14:03:22;3.77;;;3.47;;
27113;SDS011;14648;49.730;8.614;2023-04-28T14:05:49;3.00;;;2.80;;
27113;SDS011;14648;49.730;8.614;2023-04-28T14:08:17;3.97;;;3.67;;
27113;SDS011;14648;49.730;8.614;2023-04-28T14:10:43;2.80;;;2.30;;
27113;SDS011;14648;49.730;8.614;2023-04-28T14:13:09;3.80;;;2.60;;
27113;SDS011;14648;49.730;8.614;2023-04-28T14:15:36;2.20;;;2.10;;
27113;SDS011;14648;49.730;8.614;2023-04-28T14:18:01;2.60;;;1.70;;
27113;SDS011;14648;49.730;8.614;2023-04-28T14:20:27;4.10;;;1.67;;
27113;SDS011;14648;49.730;8.614;2023-04-28T14:22:54;1.40;;;1.30;;
27113;SDS011;14648;49.730;8.614;2023-04-28T14:25:20;1.80;;;1.70;;
27113;SDS011;14648;49.730;8.614;2023-04-28T14:27:49;1.40;;;1.30;;
27113;SDS011;14648;49.730;8.614;2023-04-28T14:30:16;2.57;;;1.33;;
27113;SDS011;14648;49.730;8.614;2023-04-28T14:32:42;1.40;;;1.30;;
27113;SDS011;14648;49.730;8.614;2023-04-28T14:35:09;3.03;;;1.10;;
27113;SDS011;14648;49.730;8.614;2023-04-28T14:37:36;1.30;;;1.20;;
27113;SDS011;14648;49.730;8.614;2023-04-28T14:40:02;1.23;;;1.13;;
27113;SDS011;14648;49.730;8.614;2023-04-28T14:42:33;1.37;;;1.27;;
27113;SDS011;14648;49.730;8.614;2023-04-28T14:45:07;1.37;;;1.27;;
27113;SDS011;14648;49.730;8.614;2023-04-28T14:47:35;1.10;;;1.00;;
27113;SDS011;14648;49.730;8.614;2023-04-28T14:50:03;1.23;;;1.10;;
27113;SDS011;14648;49.730;8.614;2023-04-28T14:52:29;0.80;;;0.80;;
27113;SDS011;14648;49.730;8.614;2023-04-28T14:54:57;1.00;;;0.70;;
27113;SDS011;14648;49.730;8.614;2023-04-28T14:57:24;7.50;;;1.00;;
27113;SDS011;14648;49.730;8.614;2023-04-28T14:59:50;4.40;;;1.07;;
27113;SDS011;14648;49.730;8.614;2023-04-28T15:02:17;0.73;;;0.73;;
27113;SDS011;14648;49.730;8.614;2023-04-28T15:04:45;0.80;;;0.80;;
27113;SDS011;14648;49.730;8.614;2023-04-28T15:07:12;0.93;;;0.70;;
27113;SDS011;14648;49.730;8.614;2023-04-28T15:09:39;0.70;;;0.70;;
27113;SDS011;14648;49.730;8.614;2023-04-28T15:12:04;1.20;;;1.10;;
27113;SDS011;14648;49.730;8.614;2023-04-28T15:14:30;1.10;;;0.80;;
27113;SDS011;14648;49.730;8.614;2023-04-28T15:16:56;1.87;;;1.10;;
27113;SDS011;14648;49.730;8.614;2023-04-28T15:19:24;1.73;;;0.80;;
27113;SDS011;14648;49.730;8.614;2023-04-28T15:21:50;1.07;;;0.80;;
27113;SDS011;14648;49.730;8.614;2023-04-28T15:24:17;0.80;;;0.80;;